Ely Airport

Airport
ICAO code: 
KELY
Summary
ICAO Region: 
NAM
Territory: 
Location: 
Ely, Nevada,
Elevation: 
6259 ft
Coordinates: 
Aerial View: 
39° 17' 58.105" N, 114° 50' 5.23" W
Airport CFIT: 
Altimeter Temperature Error Correction
Airport RE: 
Hot and High Operations
Metar
Observation
KELY 040653Z AUTO 17010KT 10SM CLR M05/M09 A3025 RMK AO2 SLP230 T10501089
Station
Ely, Ely Airport
Date/Time
2021-12-04 06:53:00
Wind direction
170°
Wind speed
10 kts
Lowest cloud amount
n/a
Temperature
-5°C
Dew point
-8.9°C
Humidity
74%
Weather condition
n/a

Description

Ely Airport (Yelland Field) is a public use airport located 5km northeast of Ely, in White Pine County, Nevada.

Climatology

Semi-arid climate (Köppen climate classification BSk) - Little precipitation, hot summers and cold winters, sometimes with large changes in temperature in a 24 hour period.

Runways

Designator Length Width Surface Rops
12/30 1467 18 ASP Yes/Yes
18/36 1834 46 ASP Yes/Yes
Airport map: 
Aerial View: 

SKYbrary Partners:

Safety knowledge contributed by: